sensor_id;sensor_type;location;lat;lon;timestamp;P1;durP1;ratioP1;P2;durP2;ratioP2
21927;SDS011;11128;51.096;17.190;2024-01-15T00:01:42;7.22;;;4.00;;
21927;SDS011;11128;51.096;17.190;2024-01-15T00:06:45;9.18;;;4.45;;
21927;SDS011;11128;51.096;17.190;2024-01-15T00:11:46;12.18;;;5.28;;
21927;SDS011;11128;51.096;17.190;2024-01-15T00:16:47;12.60;;;5.38;;
21927;SDS011;11128;51.096;17.190;2024-01-15T00:21:51;7.78;;;4.85;;
21927;SDS011;11128;51.096;17.190;2024-01-15T00:26:52;10.93;;;5.40;;
21927;SDS011;11128;51.096;17.190;2024-01-15T00:31:54;11.32;;;6.13;;
21927;SDS011;11128;51.096;17.190;2024-01-15T00:36:55;12.55;;;6.00;;
21927;SDS011;11128;51.096;17.190;2024-01-15T00:41:56;13.73;;;5.95;;
21927;SDS011;11128;51.096;17.190;2024-01-15T00:46:57;15.55;;;6.88;;
21927;SDS011;11128;51.096;17.190;2024-01-15T00:51:58;17.25;;;7.25;;
21927;SDS011;11128;51.096;17.190;2024-01-15T00:57:00;18.08;;;6.80;;
21927;SDS011;11128;51.096;17.190;2024-01-15T01:02:01;16.02;;;6.00;;
21927;SDS011;11128;51.096;17.190;2024-01-15T01:07:03;14.13;;;6.32;;
21927;SDS011;11128;51.096;17.190;2024-01-15T01:12:04;16.20;;;6.75;;
21927;SDS011;11128;51.096;17.190;2024-01-15T01:17:05;12.60;;;6.70;;
21927;SDS011;11128;51.096;17.190;2024-01-15T01:22:07;15.77;;;6.68;;
21927;SDS011;11128;51.096;17.190;2024-01-15T01:27:08;12.35;;;5.43;;
21927;SDS011;11128;51.096;17.190;2024-01-15T01:32:09;11.23;;;4.97;;
21927;SDS011;11128;51.096;17.190;2024-01-15T01:37:10;13.02;;;5.13;;
21927;SDS011;11128;51.096;17.190;2024-01-15T01:42:15;12.13;;;5.70;;
21927;SDS011;11128;51.096;17.190;2024-01-15T01:47:16;14.48;;;6.18;;
21927;SDS011;11128;51.096;17.190;2024-01-15T01:52:17;11.20;;;4.72;;
21927;SDS011;11128;51.096;17.190;2024-01-15T01:57:18;8.23;;;4.80;;
21927;SDS011;11128;51.096;17.190;2024-01-15T02:02:23;15.10;;;5.85;;
21927;SDS011;11128;51.096;17.190;2024-01-15T02:07:25;13.23;;;5.45;;
21927;SDS011;11128;51.096;17.190;2024-01-15T02:12:26;12.88;;;5.68;;
21927;SDS011;11128;51.096;17.190;2024-01-15T02:17:27;11.55;;;5.65;;
21927;SDS011;11128;51.096;17.190;2024-01-15T02:22:28;8.88;;;4.57;;
21927;SDS011;11128;51.096;17.190;2024-01-15T02:27:29;8.07;;;4.22;;
21927;SDS011;11128;51.096;17.190;2024-01-15T02:32:31;6.97;;;4.22;;
21927;SDS011;11128;51.096;17.190;2024-01-15T02:37:32;9.38;;;4.20;;
21927;SDS011;11128;51.096;17.190;2024-01-15T02:42:33;9.90;;;4.82;;
21927;SDS011;11128;51.096;17.190;2024-01-15T02:47:34;10.15;;;4.68;;
21927;SDS011;11128;51.096;17.190;2024-01-15T02:52:35;11.13;;;4.93;;
21927;SDS011;11128;51.096;17.190;2024-01-15T02:57:36;12.35;;;5.05;;
21927;SDS011;11128;51.096;17.190;2024-01-15T03:02:38;11.80;;;4.53;;
21927;SDS011;11128;51.096;17.190;2024-01-15T03:07:40;8.38;;;4.22;;
21927;SDS011;11128;51.096;17.190;2024-01-15T03:12:42;10.57;;;5.10;;
21927;SDS011;11128;51.096;17.190;2024-01-15T03:17:43;11.35;;;4.53;;
21927;SDS011;11128;51.096;17.190;2024-01-15T03:22:44;8.02;;;4.32;;
21927;SDS011;11128;51.096;17.190;2024-01-15T03:27:45;8.75;;;4.07;;
21927;SDS011;11128;51.096;17.190;2024-01-15T03:32:46;7.63;;;3.70;;
21927;SDS011;11128;51.096;17.190;2024-01-15T03:37:48;9.77;;;4.22;;
21927;SDS011;11128;51.096;17.190;2024-01-15T03:42:49;5.63;;;3.40;;
21927;SDS011;11128;51.096;17.190;2024-01-15T03:47:50;8.93;;;4.13;;
21927;SDS011;11128;51.096;17.190;2024-01-15T03:52:52;6.10;;;3.20;;
21927;SDS011;11128;51.096;17.190;2024-01-15T03:57:53;10.27;;;3.90;;
21927;SDS011;11128;51.096;17.190;2024-01-15T04:02:54;6.35;;;2.90;;
21927;SDS011;11128;51.096;17.190;2024-01-15T04:07:55;7.43;;;3.78;;
21927;SDS011;11128;51.096;17.190;2024-01-15T04:12:57;7.20;;;3.80;;
21927;SDS011;11128;51.096;17.190;2024-01-15T04:18:00;6.70;;;3.50;;
21927;SDS011;11128;51.096;17.190;2024-01-15T04:23:02;8.63;;;3.47;;
21927;SDS011;11128;51.096;17.190;2024-01-15T04:28:04;7.45;;;3.42;;
21927;SDS011;11128;51.096;17.190;2024-01-15T04:33:05;5.47;;;3.38;;
21927;SDS011;11128;51.096;17.190;2024-01-15T04:38:06;7.88;;;3.28;;
21927;SDS011;11128;51.096;17.190;2024-01-15T04:43:08;6.43;;;3.38;;
21927;SDS011;11128;51.096;17.190;2024-01-15T04:48:09;9.88;;;4.40;;
21927;SDS011;11128;51.096;17.190;2024-01-15T04:53:10;7.65;;;3.83;;
21927;SDS011;11128;51.096;17.190;2024-01-15T04:58:12;12.43;;;4.68;;
21927;SDS011;11128;51.096;17.190;2024-01-15T05:03:13;10.27;;;4.55;;
21927;SDS011;11128;51.096;17.190;2024-01-15T05:08:14;8.88;;;4.13;;
21927;SDS011;11128;51.096;17.190;2024-01-15T05:13:15;5.95;;;3.17;;
21927;SDS011;11128;51.096;17.190;2024-01-15T05:18:17;8.27;;;3.83;;
21927;SDS011;11128;51.096;17.190;2024-01-15T05:23:18;7.38;;;3.15;;
21927;SDS011;11128;51.096;17.190;2024-01-15T05:28:20;7.93;;;3.33;;
21927;SDS011;11128;51.096;17.190;2024-01-15T05:33:22;8.02;;;3.00;;
21927;SDS011;11128;51.096;17.190;2024-01-15T05:38:27;5.18;;;3.08;;
21927;SDS011;11128;51.096;17.190;2024-01-15T05:43:28;8.02;;;3.15;;
21927;SDS011;11128;51.096;17.190;2024-01-15T05:48:29;7.03;;;3.25;;
21927;SDS011;11128;51.096;17.190;2024-01-15T05:53:30;5.07;;;3.33;;
21927;SDS011;11128;51.096;17.190;2024-01-15T05:58:32;6.03;;;2.92;;
21927;SDS011;11128;51.096;17.190;2024-01-15T06:03:33;9.63;;;3.47;;
21927;SDS011;11128;51.096;17.190;2024-01-15T06:08:34;9.10;;;4.05;;
21927;SDS011;11128;51.096;17.190;2024-01-15T06:13:36;6.32;;;2.88;;
21927;SDS011;11128;51.096;17.190;2024-01-15T06:18:37;6.75;;;3.67;;
21927;SDS011;11128;51.096;17.190;2024-01-15T06:23:39;6.32;;;3.80;;
21927;SDS011;11128;51.096;17.190;2024-01-15T06:28:40;10.52;;;4.78;;
21927;SDS011;11128;51.096;17.190;2024-01-15T06:33:42;7.75;;;3.70;;
21927;SDS011;11128;51.096;17.190;2024-01-15T06:38:44;10.43;;;4.68;;
21927;SDS011;11128;51.096;17.190;2024-01-15T06:43:45;8.50;;;4.30;;
21927;SDS011;11128;51.096;17.190;2024-01-15T06:48:46;11.55;;;4.43;;
21927;SDS011;11128;51.096;17.190;2024-01-15T06:53:48;6.72;;;3.55;;
21927;SDS011;11128;51.096;17.190;2024-01-15T06:58:49;6.78;;;2.85;;
21927;SDS011;11128;51.096;17.190;2024-01-15T07:03:50;5.70;;;3.10;;
21927;SDS011;11128;51.096;17.190;2024-01-15T07:08:52;10.52;;;3.95;;
21927;SDS011;11128;51.096;17.190;2024-01-15T07:13:53;8.50;;;3.53;;
21927;SDS011;11128;51.096;17.190;2024-01-15T07:18:54;7.50;;;3.72;;
21927;SDS011;11128;51.096;17.190;2024-01-15T07:23:55;9.35;;;3.80;;
21927;SDS011;11128;51.096;17.190;2024-01-15T07:28:57;8.55;;;3.58;;
21927;SDS011;11128;51.096;17.190;2024-01-15T07:33:58;7.47;;;3.28;;
21927;SDS011;11128;51.096;17.190;2024-01-15T07:39:01;7.82;;;3.58;;
21927;SDS011;11128;51.096;17.190;2024-01-15T07:44:02;6.50;;;3.08;;
21927;SDS011;11128;51.096;17.190;2024-01-15T07:49:05;8.60;;;4.00;;
21927;SDS011;11128;51.096;17.190;2024-01-15T07:54:06;8.27;;;3.58;;
21927;SDS011;11128;51.096;17.190;2024-01-15T07:59:08;7.35;;;3.50;;
21927;SDS011;11128;51.096;17.190;2024-01-15T08:04:09;7.28;;;3.33;;
21927;SDS011;11128;51.096;17.190;2024-01-15T08:09:13;6.85;;;3.45;;
21927;SDS011;11128;51.096;17.190;2024-01-15T08:14:14;5.75;;;2.38;;
21927;SDS011;11128;51.096;17.190;2024-01-15T08:19:16;6.30;;;3.50;;
21927;SDS011;11128;51.096;17.190;2024-01-15T08:24:18;6.82;;;3.03;;
21927;SDS011;11128;51.096;17.190;2024-01-15T08:29:20;4.15;;;2.53;;
21927;SDS011;11128;51.096;17.190;2024-01-15T08:34:22;4.18;;;2.50;;
21927;SDS011;11128;51.096;17.190;2024-01-15T08:39:23;4.72;;;2.38;;
21927;SDS011;11128;51.096;17.190;2024-01-15T08:44:25;6.75;;;3.22;;
21927;SDS011;11128;51.096;17.190;2024-01-15T08:49:26;6.22;;;2.70;;
21927;SDS011;11128;51.096;17.190;2024-01-15T08:54:28;9.55;;;3.15;;
21927;SDS011;11128;51.096;17.190;2024-01-15T08:59:30;4.68;;;2.20;;
21927;SDS011;11128;51.096;17.190;2024-01-15T09:04:32;6.00;;;2.75;;
21927;SDS011;11128;51.096;17.190;2024-01-15T09:09:34;5.00;;;2.22;;
21927;SDS011;11128;51.096;17.190;2024-01-15T09:14:36;5.00;;;2.05;;
21927;SDS011;11128;51.096;17.190;2024-01-15T09:19:38;8.27;;;2.42;;
21927;SDS011;11128;51.096;17.190;2024-01-15T09:24:41;6.70;;;2.38;;
21927;SDS011;11128;51.096;17.190;2024-01-15T09:29:42;5.18;;;2.22;;
21927;SDS011;11128;51.096;17.190;2024-01-15T09:34:46;3.85;;;1.85;;
21927;SDS011;11128;51.096;17.190;2024-01-15T09:39:48;5.22;;;2.50;;
21927;SDS011;11128;51.096;17.190;2024-01-15T09:44:51;7.85;;;2.20;;
21927;SDS011;11128;51.096;17.190;2024-01-15T09:49:54;5.00;;;1.60;;
21927;SDS011;11128;51.096;17.190;2024-01-15T09:54:58;5.60;;;2.53;;
21927;SDS011;11128;51.096;17.190;2024-01-15T10:00:02;5.25;;;2.40;;
21927;SDS011;11128;51.096;17.190;2024-01-15T10:05:05;5.05;;;2.30;;
21927;SDS011;11128;51.096;17.190;2024-01-15T10:10:06;5.05;;;1.88;;
21927;SDS011;11128;51.096;17.190;2024-01-15T10:15:11;5.60;;;2.42;;
21927;SDS011;11128;51.096;17.190;2024-01-15T10:20:13;3.20;;;1.95;;
21927;SDS011;11128;51.096;17.190;2024-01-15T10:25:15;2.58;;;1.30;;
21927;SDS011;11128;51.096;17.190;2024-01-15T10:30:17;5.78;;;1.92;;
21927;SDS011;11128;51.096;17.190;2024-01-15T10:35:19;5.85;;;2.05;;
21927;SDS011;11128;51.096;17.190;2024-01-15T10:40:23;4.47;;;1.77;;
21927;SDS011;11128;51.096;17.190;2024-01-15T10:45:24;4.18;;;1.88;;
21927;SDS011;11128;51.096;17.190;2024-01-15T10:50:26;6.15;;;2.42;;
21927;SDS011;11128;51.096;17.190;2024-01-15T10:55:28;6.00;;;2.00;;
21927;SDS011;11128;51.096;17.190;2024-01-15T11:00:30;3.92;;;1.73;;
21927;SDS011;11128;51.096;17.190;2024-01-15T11:10:45;4.68;;;1.63;;
21927;SDS011;11128;51.096;17.190;2024-01-15T11:15:56;4.63;;;2.30;;
21927;SDS011;11128;51.096;17.190;2024-01-15T11:26:33;5.07;;;2.20;;
21927;SDS011;11128;51.096;17.190;2024-01-15T11:41:46;3.05;;;1.65;;
21927;SDS011;11128;51.096;17.190;2024-01-15T11:46:55;2.63;;;1.55;;
21927;SDS011;11128;51.096;17.190;2024-01-15T11:52:03;3.67;;;1.60;;
21927;SDS011;11128;51.096;17.190;2024-01-15T11:57:09;8.77;;;3.15;;
21927;SDS011;11128;51.096;17.190;2024-01-15T12:02:18;3.17;;;1.27;;
21927;SDS011;11128;51.096;17.190;2024-01-15T12:07:19;7.40;;;2.33;;
21927;SDS011;11128;51.096;17.190;2024-01-15T12:12:24;5.55;;;2.05;;
21927;SDS011;11128;51.096;17.190;2024-01-15T12:17:30;4.75;;;1.98;;
21927;SDS011;11128;51.096;17.190;2024-01-15T12:22:31;7.05;;;2.38;;
21927;SDS011;11128;51.096;17.190;2024-01-15T12:27:33;4.10;;;2.08;;
21927;SDS011;11128;51.096;17.190;2024-01-15T12:32:34;3.83;;;1.77;;
21927;SDS011;11128;51.096;17.190;2024-01-15T12:37:36;3.70;;;2.30;;
21927;SDS011;11128;51.096;17.190;2024-01-15T12:42:41;8.07;;;2.58;;
21927;SDS011;11128;51.096;17.190;2024-01-15T12:47:42;6.47;;;2.42;;
21927;SDS011;11128;51.096;17.190;2024-01-15T12:52:44;13.30;;;3.72;;
21927;SDS011;11128;51.096;17.190;2024-01-15T12:57:45;13.77;;;4.13;;
21927;SDS011;11128;51.096;17.190;2024-01-15T13:02:47;5.38;;;2.50;;
21927;SDS011;11128;51.096;17.190;2024-01-15T13:07:48;11.10;;;2.40;;
21927;SDS011;11128;51.096;17.190;2024-01-15T13:12:50;6.40;;;2.00;;
21927;SDS011;11128;51.096;17.190;2024-01-15T13:17:51;5.80;;;1.70;;
21927;SDS011;11128;51.096;17.190;2024-01-15T13:22:53;5.60;;;2.08;;
21927;SDS011;11128;51.096;17.190;2024-01-15T13:27:54;3.95;;;2.10;;
21927;SDS011;11128;51.096;17.190;2024-01-15T13:32:55;4.15;;;2.13;;
21927;SDS011;11128;51.096;17.190;2024-01-15T13:37:58;4.55;;;1.90;;
21927;SDS011;11128;51.096;17.190;2024-01-15T13:42:59;4.60;;;1.98;;
21927;SDS011;11128;51.096;17.190;2024-01-15T13:48:01;7.00;;;1.90;;
21927;SDS011;11128;51.096;17.190;2024-01-15T13:53:06;4.53;;;1.75;;
21927;SDS011;11128;51.096;17.190;2024-01-15T13:58:09;6.00;;;1.75;;
21927;SDS011;11128;51.096;17.190;2024-01-15T14:03:12;3.92;;;1.55;;
21927;SDS011;11128;51.096;17.190;2024-01-15T14:08:13;3.28;;;1.42;;
21927;SDS011;11128;51.096;17.190;2024-01-15T14:13:15;6.32;;;2.05;;
21927;SDS011;11128;51.096;17.190;2024-01-15T14:18:16;4.18;;;1.67;;
21927;SDS011;11128;51.096;17.190;2024-01-15T14:23:18;6.95;;;2.35;;
21927;SDS011;11128;51.096;17.190;2024-01-15T14:28:39;5.18;;;2.55;;
21927;SDS011;11128;51.096;17.190;2024-01-15T14:33:42;6.32;;;2.88;;
21927;SDS011;11128;51.096;17.190;2024-01-15T14:38:48;11.20;;;3.55;;
21927;SDS011;11128;51.096;17.190;2024-01-15T14:43:49;13.77;;;4.35;;
21927;SDS011;11128;51.096;17.190;2024-01-15T14:49:10;7.38;;;3.45;;
21927;SDS011;11128;51.096;17.190;2024-01-15T14:54:12;9.13;;;4.10;;
21927;SDS011;11128;51.096;17.190;2024-01-15T14:59:14;11.50;;;4.03;;
21927;SDS011;11128;51.096;17.190;2024-01-15T15:04:15;6.97;;;3.75;;
21927;SDS011;11128;51.096;17.190;2024-01-15T15:09:18;8.43;;;3.53;;
21927;SDS011;11128;51.096;17.190;2024-01-15T15:14:20;10.57;;;5.03;;
21927;SDS011;11128;51.096;17.190;2024-01-15T15:19:23;9.50;;;4.68;;
21927;SDS011;11128;51.096;17.190;2024-01-15T15:24:24;9.10;;;3.60;;
21927;SDS011;11128;51.096;17.190;2024-01-15T15:29:26;7.55;;;3.63;;
21927;SDS011;11128;51.096;17.190;2024-01-15T15:34:29;6.78;;;3.35;;
21927;SDS011;11128;51.096;17.190;2024-01-15T15:39:31;7.90;;;3.85;;
21927;SDS011;11128;51.096;17.190;2024-01-15T15:44:33;6.47;;;3.65;;
21927;SDS011;11128;51.096;17.190;2024-01-15T15:49:35;11.70;;;3.97;;
21927;SDS011;11128;51.096;17.190;2024-01-15T15:54:36;10.55;;;4.00;;
21927;SDS011;11128;51.096;17.190;2024-01-15T15:59:38;10.73;;;4.63;;
21927;SDS011;11128;51.096;17.190;2024-01-15T16:04:40;9.52;;;4.30;;
21927;SDS011;11128;51.096;17.190;2024-01-15T16:09:41;7.68;;;3.85;;
21927;SDS011;11128;51.096;17.190;2024-01-15T16:14:43;7.80;;;3.35;;
21927;SDS011;11128;51.096;17.190;2024-01-15T16:19:45;10.45;;;3.67;;
21927;SDS011;11128;51.096;17.190;2024-01-15T16:24:47;7.78;;;3.67;;
21927;SDS011;11128;51.096;17.190;2024-01-15T16:29:49;9.70;;;3.90;;
21927;SDS011;11128;51.096;17.190;2024-01-15T16:34:51;8.23;;;3.42;;
21927;SDS011;11128;51.096;17.190;2024-01-15T16:39:53;6.70;;;3.72;;
21927;SDS011;11128;51.096;17.190;2024-01-15T16:44:54;8.27;;;3.90;;
21927;SDS011;11128;51.096;17.190;2024-01-15T16:49:55;9.65;;;4.35;;
21927;SDS011;11128;51.096;17.190;2024-01-15T16:54:57;7.90;;;3.80;;
21927;SDS011;11128;51.096;17.190;2024-01-15T16:59:58;5.88;;;3.17;;
21927;SDS011;11128;51.096;17.190;2024-01-15T17:05:00;12.57;;;4.20;;
21927;SDS011;11128;51.096;17.190;2024-01-15T17:10:02;10.82;;;4.05;;
21927;SDS011;11128;51.096;17.190;2024-01-15T17:15:05;9.02;;;4.00;;
21927;SDS011;11128;51.096;17.190;2024-01-15T17:20:07;8.13;;;3.05;;
21927;SDS011;11128;51.096;17.190;2024-01-15T17:25:09;7.93;;;3.20;;
21927;SDS011;11128;51.096;17.190;2024-01-15T17:30:11;9.07;;;4.55;;
21927;SDS011;11128;51.096;17.190;2024-01-15T17:35:12;6.82;;;3.63;;
21927;SDS011;11128;51.096;17.190;2024-01-15T17:40:14;8.65;;;4.05;;
21927;SDS011;11128;51.096;17.190;2024-01-15T17:45:16;8.00;;;4.25;;
21927;SDS011;11128;51.096;17.190;2024-01-15T17:50:19;11.48;;;4.47;;
21927;SDS011;11128;51.096;17.190;2024-01-15T17:55:21;10.75;;;3.42;;
21927;SDS011;11128;51.096;17.190;2024-01-15T18:00:23;7.32;;;3.25;;
21927;SDS011;11128;51.096;17.190;2024-01-15T18:05:25;4.53;;;2.67;;
21927;SDS011;11128;51.096;17.190;2024-01-15T18:10:27;7.78;;;2.47;;
21927;SDS011;11128;51.096;17.190;2024-01-15T18:15:28;5.28;;;2.80;;
21927;SDS011;11128;51.096;17.190;2024-01-15T18:20:30;5.25;;;2.33;;
21927;SDS011;11128;51.096;17.190;2024-01-15T18:25:32;5.55;;;2.65;;
21927;SDS011;11128;51.096;17.190;2024-01-15T18:30:34;4.03;;;2.25;;
21927;SDS011;11128;51.096;17.190;2024-01-15T18:35:36;2.63;;;2.17;;
21927;SDS011;11128;51.096;17.190;2024-01-15T18:40:38;3.22;;;1.88;;
21927;SDS011;11128;51.096;17.190;2024-01-15T18:45:41;3.70;;;2.15;;
21927;SDS011;11128;51.096;17.190;2024-01-15T18:50:42;3.67;;;2.03;;
21927;SDS011;11128;51.096;17.190;2024-01-15T18:55:44;7.50;;;2.45;;
21927;SDS011;11128;51.096;17.190;2024-01-15T19:00:46;5.47;;;3.08;;
21927;SDS011;11128;51.096;17.190;2024-01-15T19:05:48;4.47;;;2.63;;
21927;SDS011;11128;51.096;17.190;2024-01-15T19:10:49;3.70;;;2.38;;
21927;SDS011;11128;51.096;17.190;2024-01-15T19:15:51;5.78;;;2.72;;
21927;SDS011;11128;51.096;17.190;2024-01-15T19:20:53;5.45;;;2.75;;
21927;SDS011;11128;51.096;17.190;2024-01-15T19:25:55;7.07;;;3.20;;
21927;SDS011;11128;51.096;17.190;2024-01-15T19:30:57;8.85;;;2.95;;
21927;SDS011;11128;51.096;17.190;2024-01-15T19:35:59;7.07;;;3.60;;
21927;SDS011;11128;51.096;17.190;2024-01-15T19:41:01;13.00;;;4.35;;
21927;SDS011;11128;51.096;17.190;2024-01-15T19:46:04;6.97;;;2.83;;
21927;SDS011;11128;51.096;17.190;2024-01-15T19:51:05;11.90;;;3.85;;
21927;SDS011;11128;51.096;17.190;2024-01-15T19:56:07;8.35;;;3.72;;
21927;SDS011;11128;51.096;17.190;2024-01-15T20:01:10;10.63;;;5.22;;
21927;SDS011;11128;51.096;17.190;2024-01-15T20:06:11;6.25;;;2.97;;
21927;SDS011;11128;51.096;17.190;2024-01-15T20:11:15;9.98;;;3.95;;
21927;SDS011;11128;51.096;17.190;2024-01-15T20:16:17;6.22;;;2.92;;
21927;SDS011;11128;51.096;17.190;2024-01-15T20:21:19;4.20;;;2.60;;
21927;SDS011;11128;51.096;17.190;2024-01-15T20:26:21;8.27;;;2.92;;
21927;SDS011;11128;51.096;17.190;2024-01-15T20:31:22;6.70;;;2.83;;
21927;SDS011;11128;51.096;17.190;2024-01-15T20:36:24;8.43;;;3.63;;
21927;SDS011;11128;51.096;17.190;2024-01-15T20:41:28;11.07;;;4.38;;
21927;SDS011;11128;51.096;17.190;2024-01-15T20:46:30;5.30;;;2.58;;
21927;SDS011;11128;51.096;17.190;2024-01-15T20:51:32;5.35;;;2.75;;
21927;SDS011;11128;51.096;17.190;2024-01-15T20:56:34;7.38;;;3.45;;
21927;SDS011;11128;51.096;17.190;2024-01-15T21:01:37;10.30;;;4.05;;
21927;SDS011;11128;51.096;17.190;2024-01-15T21:06:39;5.07;;;2.97;;
21927;SDS011;11128;51.096;17.190;2024-01-15T21:11:40;6.85;;;2.97;;
21927;SDS011;11128;51.096;17.190;2024-01-15T21:16:42;6.05;;;3.30;;
21927;SDS011;11128;51.096;17.190;2024-01-15T21:21:44;7.00;;;3.22;;
21927;SDS011;11128;51.096;17.190;2024-01-15T21:26:48;8.10;;;3.25;;
21927;SDS011;11128;51.096;17.190;2024-01-15T21:31:50;11.75;;;3.10;;
21927;SDS011;11128;51.096;17.190;2024-01-15T21:36:52;5.75;;;3.78;;
21927;SDS011;11128;51.096;17.190;2024-01-15T21:41:53;6.65;;;3.65;;
21927;SDS011;11128;51.096;17.190;2024-01-15T21:46:55;7.50;;;3.80;;
21927;SDS011;11128;51.096;17.190;2024-01-15T21:51:57;11.40;;;3.60;;
21927;SDS011;11128;51.096;17.190;2024-01-15T21:56:58;6.03;;;3.15;;
21927;SDS011;11128;51.096;17.190;2024-01-15T22:02:00;6.43;;;3.60;;
21927;SDS011;11128;51.096;17.190;2024-01-15T22:07:05;8.65;;;3.70;;
21927;SDS011;11128;51.096;17.190;2024-01-15T22:12:06;9.15;;;3.95;;
21927;SDS011;11128;51.096;17.190;2024-01-15T22:17:08;6.03;;;3.50;;
21927;SDS011;11128;51.096;17.190;2024-01-15T22:22:10;8.65;;;3.65;;
21927;SDS011;11128;51.096;17.190;2024-01-15T22:27:12;7.97;;;3.28;;
21927;SDS011;11128;51.096;17.190;2024-01-15T22:32:13;10.38;;;3.17;;
21927;SDS011;11128;51.096;17.190;2024-01-15T22:37:15;5.18;;;2.53;;
21927;SDS011;11128;51.096;17.190;2024-01-15T22:42:17;7.57;;;3.45;;
21927;SDS011;11128;51.096;17.190;2024-01-15T22:47:19;5.50;;;2.95;;
21927;SDS011;11128;51.096;17.190;2024-01-15T22:52:21;6.32;;;2.90;;
21927;SDS011;11128;51.096;17.190;2024-01-15T22:57:23;2.97;;;2.55;;
21927;SDS011;11128;51.096;17.190;2024-01-15T23:02:24;7.53;;;3.65;;
21927;SDS011;11128;51.096;17.190;2024-01-15T23:07:26;7.47;;;3.40;;
21927;SDS011;11128;51.096;17.190;2024-01-15T23:12:27;7.63;;;3.05;;
21927;SDS011;11128;51.096;17.190;2024-01-15T23:17:29;10.77;;;3.00;;
21927;SDS011;11128;51.096;17.190;2024-01-15T23:22:31;6.75;;;3.63;;
21927;SDS011;11128;51.096;17.190;2024-01-15T23:27:34;8.52;;;3.35;;
21927;SDS011;11128;51.096;17.190;2024-01-15T23:32:38;6.53;;;3.03;;
21927;SDS011;11128;51.096;17.190;2024-01-15T23:37:40;11.02;;;3.30;;
21927;SDS011;11128;51.096;17.190;2024-01-15T23:42:41;5.40;;;3.05;;
21927;SDS011;11128;51.096;17.190;2024-01-15T23:47:42;3.97;;;2.70;;
21927;SDS011;11128;51.096;17.190;2024-01-15T23:52:44;7.25;;;3.08;;
21927;SDS011;11128;51.096;17.190;2024-01-15T23:57:45;5.65;;;3.17;;
